createdAt,value
2023-03-17T00:00:58.641Z,11.47
2023-03-17T00:03:30.693Z,11.38
2023-03-17T00:06:02.006Z,12.01
2023-03-17T00:08:38.663Z,12.04
2023-03-17T00:11:14.159Z,9.77
2023-03-17T00:13:44.750Z,10.94
2023-03-17T00:16:19.265Z,11.21
2023-03-17T00:18:49.602Z,13.22
2023-03-17T00:21:26.198Z,11.64
2023-03-17T00:23:59.774Z,11.45
2023-03-17T00:26:29.769Z,10.52
2023-03-17T00:28:58.964Z,11.87
2023-03-17T00:31:30.459Z,11.49
2023-03-17T00:34:00.707Z,11.87
2023-03-17T00:36:33.392Z,12.36
2023-03-17T00:39:17.333Z,12.21
2023-03-17T00:41:49.593Z,10.80
2023-03-17T00:44:18.888Z,11.38
2023-03-17T00:46:48.395Z,12.21
2023-03-17T00:49:21.529Z,11.14
2023-03-17T00:51:51.847Z,11.71
2023-03-17T00:54:24.194Z,11.36
2023-03-17T00:56:53.803Z,12.21
2023-03-17T00:59:28.931Z,12.26
2023-03-17T01:01:58.671Z,11.50
2023-03-17T01:04:28.004Z,11.87
2023-03-17T01:06:59.421Z,11.93
2023-03-17T01:09:31.830Z,12.16
2023-03-17T01:12:01.609Z,12.73
2023-03-17T01:14:30.908Z,11.81
2023-03-17T01:17:00.266Z,12.34
2023-03-17T01:19:29.646Z,12.74
2023-03-17T01:21:58.924Z,10.78
2023-03-17T01:24:31.941Z,12.50
2023-03-17T01:27:01.168Z,11.19
2023-03-17T01:29:30.817Z,11.19
2023-03-17T01:32:00.373Z,11.04
2023-03-17T01:34:29.942Z,12.14
2023-03-17T01:37:00.136Z,12.45
2023-03-17T01:39:31.915Z,11.86
2023-03-17T01:42:02.058Z,11.72
2023-03-17T01:44:32.108Z,11.36
2023-03-17T01:47:01.235Z,12.10
2023-03-17T01:49:35.579Z,12.33
2023-03-17T01:52:09.898Z,12.45
2023-03-17T01:54:48.274Z,11.24
2023-03-17T01:57:23.777Z,11.09
2023-03-17T01:59:57.710Z,11.66
2023-03-17T02:02:32.767Z,11.94
2023-03-17T02:05:03.774Z,12.86
2023-03-17T02:07:34.117Z,12.01
2023-03-17T02:10:09.240Z,12.54
2023-03-17T02:12:39.995Z,11.14
2023-03-17T02:15:11.198Z,10.44
2023-03-17T02:17:40.425Z,12.05
2023-03-17T02:20:40.356Z,12.89
2023-03-17T02:23:12.668Z,11.99
2023-03-17T02:25:45.476Z,11.11
2023-03-17T02:28:19.763Z,11.56
2023-03-17T02:30:49.126Z,11.52
2023-03-17T02:33:19.133Z,10.79
2023-03-17T02:35:49.053Z,10.96
2023-03-17T02:38:20.833Z,11.07
2023-03-17T02:40:50.219Z,11.74
2023-03-17T02:43:20.076Z,11.56
2023-03-17T02:45:49.510Z,11.34
2023-03-17T02:48:19.732Z,12.26
2023-03-17T02:50:48.910Z,12.84
2023-03-17T02:53:21.296Z,11.78
2023-03-17T02:55:50.570Z,12.10
2023-03-17T02:58:19.961Z,10.98
2023-03-17T03:00:49.893Z,12.77
2023-03-17T03:03:19.058Z,11.35
2023-03-17T03:05:49.201Z,11.57
2023-03-17T03:08:22.258Z,11.63
2023-03-17T03:10:51.392Z,11.91
2023-03-17T03:13:20.861Z,11.86
2023-03-17T03:15:50.705Z,11.56
2023-03-17T03:18:20.388Z,11.05
2023-03-17T03:20:49.869Z,12.22
2023-03-17T03:23:22.042Z,12.50
2023-03-17T03:25:51.699Z,12.77
2023-03-17T03:28:21.605Z,12.08
2023-03-17T03:30:51.138Z,11.14
2023-03-17T03:33:20.981Z,11.72
2023-03-17T03:35:50.444Z,12.01
2023-03-17T03:38:22.340Z,11.78
2023-03-17T03:40:51.704Z,11.94
2023-03-17T03:43:23.885Z,12.13
2023-03-17T03:45:54.735Z,12.71
2023-03-17T03:48:24.861Z,12.23
2023-03-17T03:50:58.033Z,12.19
2023-03-17T03:53:31.176Z,11.51
2023-03-17T03:56:01.044Z,12.55
2023-03-17T03:58:30.336Z,11.76
2023-03-17T04:00:59.674Z,12.48
2023-03-17T04:03:28.990Z,11.62
2023-03-17T04:05:58.362Z,11.81
2023-03-17T04:08:31.868Z,11.29
2023-03-17T04:11:01.151Z,11.87
2023-03-17T04:13:30.917Z,12.93
2023-03-17T04:16:01.421Z,11.66
2023-03-17T04:18:31.731Z,11.24
2023-03-17T04:21:01.730Z,11.45
2023-03-17T04:23:33.585Z,11.59
2023-03-17T04:26:04.130Z,12.30
2023-03-17T04:28:33.275Z,13.16
2023-03-17T04:31:02.535Z,10.96
2023-03-17T04:33:31.802Z,12.36
2023-03-17T04:36:01.684Z,12.66
2023-03-17T04:38:33.699Z,11.36
2023-03-17T04:41:02.993Z,11.16
2023-03-17T04:43:32.570Z,12.34
2023-03-17T04:46:01.916Z,12.06
2023-03-17T04:48:31.650Z,12.18
2023-03-17T04:51:00.810Z,12.20
2023-03-17T04:53:33.062Z,13.07
2023-03-17T04:56:02.280Z,11.84
2023-03-17T04:58:31.684Z,12.29
2023-03-17T05:01:02.584Z,13.11
2023-03-17T05:03:33.382Z,12.70
2023-03-17T05:06:03.153Z,11.50
2023-03-17T05:08:34.972Z,10.62
2023-03-17T05:11:04.977Z,11.81
2023-03-17T05:13:34.236Z,11.89
2023-03-17T05:16:03.659Z,12.06
2023-03-17T05:18:32.943Z,12.30
2023-03-17T05:21:02.131Z,11.26
2023-03-17T05:23:34.552Z,12.94
2023-03-17T05:26:04.075Z,11.34
2023-03-17T05:28:33.996Z,11.18
2023-03-17T05:31:03.757Z,11.29
2023-03-17T05:33:33.169Z,11.83
2023-03-17T05:36:03.719Z,11.41
2023-03-17T05:38:35.544Z,12.12
2023-03-17T05:41:05.573Z,12.39
2023-03-17T05:43:35.142Z,11.48
2023-03-17T05:46:05.994Z,11.63
2023-03-17T05:48:35.561Z,11.37
2023-03-17T05:51:05.408Z,9.79
2023-03-17T05:53:37.508Z,11.22
2023-03-17T05:56:07.518Z,10.14
2023-03-17T05:58:37.140Z,10.59
2023-03-17T06:01:06.821Z,10.66
2023-03-17T06:03:38.845Z,9.27
2023-03-17T06:06:09.402Z,9.86
2023-03-17T06:08:41.392Z,10.31
2023-03-17T06:11:10.602Z,10.84
2023-03-17T06:13:40.025Z,10.54
2023-03-17T06:16:09.908Z,10.73
2023-03-17T06:18:39.122Z,10.53
2023-03-17T06:21:08.535Z,9.53
2023-03-17T06:23:40.643Z,10.39
2023-03-17T06:26:09.767Z,10.81
2023-03-17T06:28:39.079Z,10.24
2023-03-17T06:31:09.159Z,9.69
2023-03-17T06:33:39.040Z,10.11
2023-03-17T06:36:08.913Z,9.63
2023-03-17T06:38:41.641Z,10.42
2023-03-17T06:41:11.160Z,10.09
2023-03-17T06:43:40.613Z,10.61
2023-03-17T06:46:10.656Z,10.79
2023-03-17T06:48:40.772Z,10.72
2023-03-17T06:51:11.116Z,10.72
2023-03-17T06:53:43.130Z,9.44
2023-03-17T06:56:23.573Z,10.95
2023-03-17T06:58:58.366Z,11.21
2023-03-17T07:01:28.933Z,10.21
2023-03-17T07:03:58.203Z,10.78
2023-03-17T07:06:28.699Z,11.06
2023-03-17T07:09:02.291Z,10.50
2023-03-17T07:11:32.824Z,10.61
2023-03-17T07:14:02.931Z,9.87
2023-03-17T07:16:33.077Z,10.64
2023-03-17T07:19:02.344Z,10.13
2023-03-17T07:21:31.738Z,11.35
2023-03-17T07:24:04.565Z,10.35
2023-03-17T07:26:33.758Z,10.35
2023-03-17T07:29:03.325Z,10.67
2023-03-17T07:31:32.684Z,10.56
2023-03-17T07:34:02.128Z,10.49
2023-03-17T07:36:31.529Z,10.66
2023-03-17T07:39:03.980Z,10.34
2023-03-17T07:41:33.251Z,9.81
2023-03-17T07:44:03.979Z,11.44
2023-03-17T07:46:33.621Z,10.94
2023-03-17T07:49:03.055Z,10.84
2023-03-17T07:51:32.473Z,10.16
2023-03-17T07:54:05.939Z,12.07
2023-03-17T07:56:35.350Z,11.56
2023-03-17T07:59:04.721Z,11.54
2023-03-17T08:01:34.278Z,11.79
2023-03-17T08:04:05.151Z,12.44
2023-03-17T08:06:34.559Z,11.85
2023-03-17T08:09:06.597Z,11.44
2023-03-17T08:11:36.165Z,11.71
2023-03-17T08:14:06.691Z,10.78
2023-03-17T08:16:36.158Z,12.13
2023-03-17T08:19:06.924Z,12.47
2023-03-17T08:21:36.615Z,12.79
2023-03-17T08:24:08.698Z,13.23
2023-03-17T08:26:38.391Z,12.52
2023-03-17T08:29:08.239Z,12.56
2023-03-17T08:31:40.542Z,13.66
2023-03-17T08:34:10.153Z,12.54
2023-03-17T08:36:39.575Z,12.86
2023-03-17T08:39:12.011Z,13.16
2023-03-17T08:41:41.871Z,13.52
2023-03-17T08:44:11.913Z,12.70
2023-03-17T08:46:41.605Z,12.05
2023-03-17T08:49:11.345Z,12.94
2023-03-17T08:51:42.007Z,12.36
2023-03-17T08:54:14.213Z,11.95
2023-03-17T08:56:43.621Z,12.50
2023-03-17T08:59:13.417Z,12.01
2023-03-17T09:01:45.146Z,12.36
2023-03-17T09:04:15.526Z,11.99
2023-03-17T09:07:01.908Z,12.45
2023-03-17T09:09:36.665Z,13.44
2023-03-17T09:12:08.160Z,12.99
2023-03-17T09:14:43.878Z,12.88
2023-03-17T09:17:15.470Z,12.11
2023-03-17T09:19:44.977Z,12.54
2023-03-17T09:22:16.035Z,12.09
2023-03-17T09:24:47.898Z,11.22
2023-03-17T09:27:17.145Z,12.55
2023-03-17T09:32:57.186Z,11.92
2023-03-17T09:35:28.206Z,11.83
2023-03-17T09:37:57.478Z,13.94
2023-03-17T09:40:34.214Z,15.52
2023-03-17T09:43:17.329Z,14.24
2023-03-17T09:45:48.529Z,13.76
2023-03-17T09:48:44.125Z,15.24
2023-03-17T09:51:19.433Z,13.59
2023-03-17T09:54:00.021Z,14.01
2023-03-17T09:56:33.682Z,14.31
2023-03-17T09:59:08.859Z,15.51
2023-03-17T10:01:44.122Z,14.75
2023-03-17T10:04:18.738Z,15.16
2023-03-17T10:06:50.588Z,14.91
2023-03-17T10:09:27.992Z,13.97
2023-03-17T10:12:10.005Z,13.86
2023-03-17T10:14:51.429Z,14.79
2023-03-17T10:17:23.217Z,14.56
2023-03-17T10:20:02.071Z,13.71
2023-03-17T10:22:39.836Z,13.80
2023-03-17T10:25:17.748Z,14.00
2023-03-17T10:27:54.600Z,14.80
2023-03-17T10:30:26.067Z,14.87
2023-03-17T10:33:00.915Z,14.35
2023-03-17T10:35:36.449Z,13.65
2023-03-17T10:38:18.001Z,13.82
2023-03-17T10:40:57.042Z,13.72
2023-03-17T10:43:31.124Z,13.71
2023-03-17T10:46:03.207Z,13.74
2023-03-17T10:48:38.149Z,13.36
2023-03-17T10:51:13.052Z,14.00
2023-03-17T10:53:44.104Z,15.69
2023-03-17T10:56:27.471Z,13.32
2023-03-17T10:58:57.127Z,13.11
2023-03-17T11:01:35.040Z,14.14
2023-03-17T11:04:20.273Z,13.03
2023-03-17T11:06:53.066Z,11.86
2023-03-17T11:09:22.342Z,12.49
2023-03-17T11:12:02.354Z,13.11
2023-03-17T11:14:32.133Z,13.68
2023-03-17T11:17:03.750Z,12.61
2023-03-17T11:19:44.511Z,13.59
2023-03-17T11:22:21.871Z,13.99
2023-03-17T11:25:06.840Z,11.54
2023-03-17T11:27:44.623Z,12.39
2023-03-17T11:30:26.225Z,12.09
2023-03-17T11:33:03.314Z,12.40
2023-03-17T11:35:44.998Z,12.12
2023-03-17T11:38:26.015Z,11.68
2023-03-17T11:41:33.014Z,11.63
2023-03-17T11:44:31.683Z,12.59
2023-03-17T11:47:15.260Z,11.96
2023-03-17T11:49:53.093Z,12.54
2023-03-17T11:52:30.430Z,14.00
2023-03-17T11:55:16.406Z,13.47
2023-03-17T11:57:54.660Z,12.06
2023-03-17T12:00:32.066Z,13.29
2023-03-17T12:03:13.484Z,11.89
2023-03-17T12:05:45.511Z,12.79
2023-03-17T12:08:30.007Z,12.48
2023-03-17T12:11:08.571Z,12.43
2023-03-17T12:13:46.117Z,10.61
2023-03-17T12:16:25.786Z,12.61
2023-03-17T12:19:06.847Z,12.29
2023-03-17T12:21:43.088Z,11.10
2023-03-17T12:24:20.247Z,11.31
2023-03-17T12:26:59.502Z,11.24
2023-03-17T12:29:43.280Z,11.27
2023-03-17T12:32:20.020Z,12.79
2023-03-17T12:34:57.173Z,11.34
2023-03-17T12:37:30.292Z,12.38
2023-03-17T12:40:07.432Z,11.19
2023-03-17T12:42:54.818Z,10.89
2023-03-17T12:45:47.758Z,12.16
2023-03-17T12:48:53.843Z,12.53
2023-03-17T12:52:03.126Z,11.73
2023-03-17T12:54:37.121Z,10.46
2023-03-17T12:57:15.658Z,11.36
2023-03-17T12:59:51.412Z,12.07
2023-03-17T13:02:36.798Z,12.04
2023-03-17T13:05:11.529Z,11.96
2023-03-17T13:07:49.319Z,11.49
2023-03-17T13:10:40.970Z,12.23
2023-03-17T13:13:23.641Z,11.11
2023-03-17T13:15:59.510Z,12.46
2023-03-17T13:18:48.966Z,12.94
2023-03-17T13:21:29.218Z,12.06
2023-03-17T13:24:24.949Z,11.99
2023-03-17T13:27:04.648Z,12.24
2023-03-17T13:29:46.146Z,13.24
2023-03-17T13:32:32.445Z,11.30
2023-03-17T13:35:19.100Z,11.21
2023-03-17T13:38:13.131Z,12.45
2023-03-17T13:40:59.136Z,11.28
2023-03-17T13:43:49.726Z,11.66
2023-03-17T13:46:28.147Z,11.88
2023-03-17T13:48:59.122Z,12.15
2023-03-17T13:51:34.457Z,11.90
2023-03-17T13:54:20.706Z,12.16
2023-03-17T13:56:54.976Z,12.26
2023-03-17T13:59:37.189Z,11.63
2023-03-17T14:02:18.511Z,14.00
2023-03-17T14:04:55.551Z,12.31
2023-03-17T14:07:29.004Z,11.75
2023-03-17T14:10:02.774Z,12.73
2023-03-17T14:12:51.556Z,12.64
2023-03-17T14:15:28.367Z,12.71
2023-03-17T14:18:04.873Z,12.21
2023-03-17T14:20:34.370Z,11.99
2023-03-17T14:23:06.797Z,12.85
2023-03-17T14:25:38.795Z,12.60
2023-03-17T14:28:17.515Z,11.76
2023-03-17T14:30:54.134Z,12.11
2023-03-17T14:33:27.180Z,13.01
2023-03-17T14:36:00.557Z,13.78
2023-03-17T14:38:32.964Z,12.99
2023-03-17T14:41:05.170Z,13.13
2023-03-17T14:43:38.733Z,13.26
2023-03-17T14:46:14.775Z,14.94
2023-03-17T14:48:48.241Z,13.36
2023-03-17T14:51:28.052Z,13.69
2023-03-17T14:54:02.112Z,12.14
2023-03-17T14:56:37.023Z,11.44
2023-03-17T14:59:19.223Z,11.27
2023-03-17T15:01:49.330Z,13.40
2023-03-17T15:04:21.245Z,12.21
2023-03-17T15:06:53.044Z,13.89
2023-03-17T15:09:28.164Z,12.86
2023-03-17T15:12:02.713Z,13.85
2023-03-17T15:14:38.882Z,13.13
2023-03-17T15:17:18.053Z,13.29
2023-03-17T15:19:51.379Z,13.62
2023-03-17T15:22:27.168Z,12.86
2023-03-17T15:25:04.616Z,12.74
2023-03-17T15:27:33.881Z,14.03
2023-03-17T15:30:07.505Z,13.84
2023-03-17T15:32:37.170Z,14.21
2023-03-17T15:35:09.487Z,13.69
2023-03-17T15:37:38.749Z,14.04
2023-03-17T15:40:10.242Z,14.04
2023-03-17T15:42:40.870Z,13.31
2023-03-17T15:45:16.175Z,13.29
2023-03-17T15:47:47.708Z,14.19
2023-03-17T15:50:23.967Z,13.04
2023-03-17T15:52:55.849Z,13.15
2023-03-17T15:55:30.679Z,13.84
2023-03-17T15:58:00.938Z,13.24
2023-03-17T16:00:33.526Z,12.84
2023-03-17T16:03:16.674Z,12.29
2023-03-17T16:05:48.017Z,13.13
2023-03-17T16:08:18.225Z,13.96
2023-03-17T16:10:48.521Z,13.54
2023-03-17T16:13:17.757Z,12.86
2023-03-17T16:15:57.242Z,13.37
2023-03-17T16:18:34.284Z,14.00
2023-03-17T16:21:05.081Z,13.28
2023-03-17T16:23:37.617Z,14.21
2023-03-17T16:26:15.579Z,13.90
2023-03-17T16:28:47.868Z,13.66
2023-03-17T16:31:25.154Z,13.46
2023-03-17T16:33:55.646Z,13.88
2023-03-17T16:36:27.751Z,13.35
2023-03-17T16:38:57.270Z,15.23
2023-03-17T16:41:29.595Z,15.13
2023-03-17T16:44:01.660Z,14.23
2023-03-17T16:46:36.022Z,15.16
2023-03-17T16:49:05.710Z,13.92
2023-03-17T16:51:35.052Z,14.74
2023-03-17T16:54:04.417Z,14.93
2023-03-17T16:56:34.183Z,15.41
2023-03-17T16:59:03.549Z,14.66
2023-03-17T17:01:36.291Z,14.49
2023-03-17T17:04:11.383Z,14.99
2023-03-17T17:06:40.560Z,14.11
2023-03-17T17:09:10.091Z,13.75
2023-03-17T17:11:39.448Z,14.63
2023-03-17T17:14:08.979Z,14.36
2023-03-17T17:16:41.539Z,14.81
2023-03-17T17:19:17.652Z,15.03
2023-03-17T17:21:46.844Z,14.89
2023-03-17T17:24:17.820Z,14.48
2023-03-17T17:26:47.018Z,14.44
2023-03-17T17:29:16.433Z,12.91
2023-03-17T17:31:48.471Z,14.39
2023-03-17T17:34:17.738Z,13.25
2023-03-17T17:36:47.269Z,14.67
2023-03-17T17:39:16.757Z,14.19
2023-03-17T17:41:45.829Z,14.61
2023-03-17T17:44:15.484Z,14.64
2023-03-17T17:46:47.488Z,14.51
2023-03-17T17:49:16.782Z,14.89
2023-03-17T17:51:46.412Z,14.26
2023-03-17T17:54:15.847Z,13.82
2023-03-17T17:56:46.994Z,13.61
2023-03-17T17:59:16.764Z,12.74
2023-03-17T18:01:48.642Z,14.76
2023-03-17T18:04:18.280Z,13.66
2023-03-17T18:06:48.883Z,14.29
2023-03-17T18:09:18.348Z,15.06
2023-03-17T18:11:47.709Z,14.61
2023-03-17T18:14:17.243Z,15.24
2023-03-17T18:16:49.180Z,13.98
2023-03-17T18:19:19.213Z,14.51
2023-03-17T18:21:48.449Z,14.36
2023-03-17T18:24:18.850Z,14.19
2023-03-17T18:26:48.013Z,15.73
2023-03-17T18:29:17.370Z,14.39
2023-03-17T18:31:55.679Z,15.49
2023-03-17T18:34:30.572Z,14.06
2023-03-17T18:37:02.590Z,14.84
2023-03-17T18:39:32.761Z,14.56
2023-03-17T18:42:02.489Z,14.04
2023-03-17T18:44:32.122Z,15.14
2023-03-17T18:47:04.695Z,15.32
2023-03-17T18:49:34.001Z,14.16
2023-03-17T18:52:03.380Z,14.90
2023-03-17T18:54:33.612Z,13.82
2023-03-17T18:57:02.945Z,15.85
2023-03-17T18:59:32.438Z,14.99
2023-03-17T19:02:04.780Z,16.28
2023-03-17T19:04:35.026Z,16.39
2023-03-17T19:07:04.217Z,17.16
2023-03-17T19:09:33.521Z,19.27
2023-03-17T19:12:02.782Z,19.38
2023-03-17T19:14:33.162Z,20.07
2023-03-17T19:17:05.590Z,18.79
2023-03-17T19:19:35.814Z,19.06
2023-03-17T19:22:06.412Z,18.59
2023-03-17T19:24:37.795Z,19.93
2023-03-17T19:27:07.286Z,20.08
2023-03-17T19:29:36.697Z,18.50
2023-03-17T19:32:08.871Z,18.71
2023-03-17T19:34:38.258Z,18.53
2023-03-17T19:37:07.633Z,18.79
2023-03-17T19:39:37.984Z,17.40
2023-03-17T19:42:07.505Z,17.59
2023-03-17T19:44:37.002Z,20.19
2023-03-17T19:47:09.200Z,19.52
2023-03-17T19:49:39.024Z,19.49
2023-03-17T19:52:09.663Z,18.81
2023-03-17T19:54:43.589Z,20.24
2023-03-17T19:57:13.288Z,19.94
2023-03-17T19:59:42.804Z,18.19
2023-03-17T20:02:17.865Z,19.88
2023-03-17T20:04:47.144Z,20.60
2023-03-17T20:07:16.638Z,21.09
2023-03-17T20:09:48.104Z,19.84
2023-03-17T20:12:17.314Z,21.50
2023-03-17T20:14:46.807Z,18.84
2023-03-17T20:17:19.144Z,20.53
2023-03-17T20:19:48.321Z,20.62
2023-03-17T20:22:17.717Z,19.79
2023-03-17T20:24:47.105Z,20.53
2023-03-17T20:27:16.342Z,21.90
2023-03-17T20:29:48.606Z,19.72
2023-03-17T20:32:21.025Z,20.06
2023-03-17T20:34:50.941Z,21.70
2023-03-17T20:37:20.135Z,22.11
2023-03-17T20:39:49.628Z,21.10
2023-03-17T20:42:20.572Z,22.14
2023-03-17T20:44:53.177Z,23.71
2023-03-17T20:47:24.956Z,21.59
2023-03-17T20:49:58.770Z,22.15
2023-03-17T20:52:30.282Z,20.71
2023-03-17T20:55:00.200Z,21.51
2023-03-17T20:57:30.322Z,22.43
2023-03-17T20:59:59.724Z,22.92
2023-03-17T21:02:31.812Z,23.69
2023-03-17T21:05:01.270Z,22.01
2023-03-17T21:07:30.707Z,23.69
2023-03-17T21:10:02.187Z,22.97
2023-03-17T21:12:32.171Z,22.16
2023-03-17T21:15:02.230Z,22.01
2023-03-17T21:17:34.452Z,24.61
2023-03-17T21:20:03.996Z,24.69
2023-03-17T21:22:34.465Z,21.69
2023-03-17T21:25:03.817Z,23.98
2023-03-17T21:27:34.288Z,22.69
2023-03-17T21:30:04.441Z,22.49
2023-03-17T21:32:36.936Z,23.08
2023-03-17T21:35:08.029Z,23.52
2023-03-17T21:37:37.431Z,22.75
2023-03-17T21:40:08.582Z,23.82
2023-03-17T21:42:37.945Z,23.52
2023-03-17T21:45:07.965Z,22.42
2023-03-17T21:47:41.356Z,23.51
2023-03-17T21:50:12.003Z,23.11
2023-03-17T21:52:41.184Z,22.99
2023-03-17T21:55:11.462Z,22.29
2023-03-17T21:57:40.979Z,24.19
2023-03-17T22:00:12.671Z,24.39
2023-03-17T22:02:45.115Z,23.01
2023-03-17T22:05:14.396Z,23.42
2023-03-17T22:07:44.047Z,23.62
2023-03-17T22:10:13.639Z,23.65
2023-03-17T22:12:42.942Z,22.18
2023-03-17T22:15:13.682Z,22.46
2023-03-17T22:17:45.725Z,23.39
2023-03-17T22:20:15.326Z,22.34
2023-03-17T22:22:44.750Z,22.73
2023-03-17T22:25:14.377Z,23.39
2023-03-17T22:27:43.764Z,21.73
2023-03-17T22:30:14.680Z,22.36
2023-03-17T22:32:46.897Z,23.29
2023-03-17T22:35:19.350Z,22.52
2023-03-17T22:37:48.530Z,22.44
2023-03-17T22:40:19.218Z,23.38
2023-03-17T22:42:48.577Z,21.59
2023-03-17T22:45:18.619Z,22.27
2023-03-17T22:47:50.693Z,21.93
2023-03-17T22:50:20.560Z,22.66
2023-03-17T22:52:49.705Z,21.06
2023-03-17T22:55:19.404Z,21.31
2023-03-17T22:57:48.903Z,22.55
2023-03-17T23:00:19.690Z,22.41
2023-03-17T23:02:51.751Z,21.54
2023-03-17T23:05:21.134Z,22.52
2023-03-17T23:07:51.787Z,21.68
2023-03-17T23:10:23.208Z,21.36
2023-03-17T23:12:53.222Z,21.79
2023-03-17T23:15:23.004Z,21.04
2023-03-17T23:17:54.882Z,19.30
2023-03-17T23:20:24.609Z,19.86
2023-03-17T23:22:53.883Z,18.40
2023-03-17T23:25:23.613Z,21.13
2023-03-17T23:27:53.033Z,20.06
2023-03-17T23:30:22.487Z,18.57
2023-03-17T23:32:54.790Z,20.16
2023-03-17T23:35:25.301Z,19.71
2023-03-17T23:37:54.567Z,18.97
2023-03-17T23:40:24.405Z,18.44
2023-03-17T23:42:55.205Z,18.71
2023-03-17T23:45:24.914Z,18.65
2023-03-17T23:47:57.600Z,20.29
2023-03-17T23:50:26.830Z,19.36
2023-03-17T23:52:56.243Z,19.18
2023-03-17T23:55:25.875Z,17.67
2023-03-17T23:57:55.254Z,18.09
